Damascus, Syria
Current Conditions -  °F | °C
As of 4:00 PM on Saturday 22 Nov 2014 (Local Time) from OSDI Reporting Station
Scattered Clouds Scattered Clouds  
Wind Chill: 16°   Ceiling: Unl
Heat Index: 16°   Visibility: 6mi
Dew Point:   Wind: 16mph
Humidity: 42%   Direction: 270°W
Pressure: 29.88"   Gusts: NA
Location:  33.5°N, 36.32°E
Report Text: OSDI 221300Z 27014KT 9999 SCT030 SCT100 16/03 Q1012
Loading
Personal Weather Stations






























Interactive Weather Map New forecast layout! Learn more

10-Day Weather Forecast

Advertisements
Track Severe Weather on mobile